Flight Track Log - Related Links

Times and Time Zones

All times are in EDT time to prevent confusion due to time zone crossing. See the SWA1802 flight status page for this flight to view local times or setup timezone preferences in your user account.

Time Position Orientation Groundspeed Altitude Reporting Facility
EDT Latitude Longitude Course Direction KTS MPH feet Rate Location/Type
Tue 06:26:27 PM 41.8167 -87.7667 234° Southwest 218 251 2,400  Level Chicago TRACON
Tue 06:27:58 PM 41.7631 -87.8642 234° Southwest 266 306 4,800 2,039 Climbing Chicago Center
Tue 06:29:00 PM 41.7464 -87.9558 256° West 266 306 7,600 3,048 Climbing Chicago Center
Tue 06:30:02 PM 41.7392 -88.0764 265° West 273 314 11,100 2,468 Climbing Chicago Center
Tue 06:31:04 PM 41.7364 -88.1881 268° West 299 344 12,700 1,728 Climbing Chicago Center
Tue 06:32:07 PM 41.7375 -88.3197 271° West 352 405 14,700 2,112 Climbing Chicago Center
Tue 06:33:09 PM 41.7381 -88.4592 270° West 375 432 17,100 2,274 Climbing Chicago Center
Tue 06:34:11 PM 41.7381 -88.6331 270° West 391 450 19,400 2,129 Climbing Chicago Center
Tue 06:35:13 PM 41.7361 -88.7842 269° West 407 468 21,500 1,935 Climbing Chicago Center
Tue 06:36:15 PM 41.7339 -88.9381 269° West 415 478 23,400 1,645 Climbing Chicago Center
Tue 06:37:17 PM 41.7303 -89.0947 268° West 423 487 24,900 1,403 Climbing Chicago Center
Tue 06:38:19 PM 41.7094 -89.2558 260° West 454 522 26,300 1,500 Climbing Chicago Center
Tue 06:39:21 PM 41.6844 -89.4494 260° West 449 517 28,000 1,548 Climbing Chicago Center
Tue 06:40:23 PM 41.6639 -89.6092 260° West 450 518 29,500 1,548 Climbing Chicago Center
Tue 06:41:25 PM 41.6422 -89.7717 260° West 449 517 31,200 1,872 Climbing Chicago Center
Tue 06:42:28 PM 41.6211 -89.9253 260° West 430 495 33,400 1,344 Climbing Chicago Center
Tue 06:43:30 PM 41.6017 -90.0739 260° West 414 476 34,000 290 Climbing Chicago Center
Tue 06:44:32 PM 41.5756 -90.2567 259° West 417 480 34,000  Level Chicago Center
Tue 06:45:34 PM 41.5542 -90.4103 260° West 421 484 34,000  Level Chicago Center
Tue 06:46:36 PM 41.5331 -90.5639 260° West 422 486 34,000  Level Chicago Center
Tue 06:47:38 PM 41.5108 -90.7153 259° West 420 483 34,000  Level Chicago Center
Tue 06:48:40 PM 41.4892 -90.8650 259° West 415 478 34,000  Level Chicago Center
Tue 06:49:42 PM 41.4669 -91.0158 259° West 415 478 34,000  Level Chicago Center
Tue 06:50:44 PM 41.4406 -91.1942 259° West 411 473 34,000  Level Chicago Center
Tue 06:51:46 PM 41.4217 -91.3267 259° West 407 468 34,000  Level Chicago Center
Tue 06:52:49 PM 41.3958 -91.5033 259° West 407 468 34,000  Level Chicago Center
Tue 06:53:51 PM 41.3733 -91.6503 259° West 408 470 34,000  Level Chicago Center
Tue 06:54:53 PM 41.3508 -91.7989 259° West 413 475 34,000  Level Chicago Center
Tue 06:55:55 PM 41.3269 -91.9481 258° West 415 478 34,000  Level Chicago Center
Tue 06:56:57 PM 41.3036 -92.0975 258° West 416 479 34,000  Level Chicago Center
Tue 06:57:59 PM 41.2764 -92.2767 259° West 416 479 34,000  Level Chicago Center
Tue 06:59:01 PM 41.2525 -92.4136 257° West 415 478 34,000  Level Chicago Center
Tue 07:00:03 PM 41.2289 -92.5656 258° West 421 484 34,000  Level Chicago Center
Tue 07:01:05 PM 41.2006 -92.7483 258° West 426 490 34,000  Level Chicago Center
Tue 07:02:08 PM 41.1758 -92.8997 258° West 426 490 34,000  Level Chicago Center
Tue 07:03:36 PM 41.1394 -93.1153 257° West 429 494 34,000  Level Minneapolis Center
Tue 07:04:38 PM 41.1150 -93.2644 258° West 424 488 34,000  Level Minneapolis Center
Tue 07:05:40 PM 41.0856 -93.4469 258° West 427 491 34,000  Level Minneapolis Center
Tue 07:06:42 PM 41.0586 -93.6014 257° West 432 497 34,000  Level Minneapolis Center
Tue 07:07:44 PM 41.0333 -93.7550 258° West 433 498 34,000  Level Minneapolis Center
Tue 07:08:46 PM 41.0064 -93.9061 257° West 429 494 34,000  Level Minneapolis Center
Tue 07:09:48 PM 40.9739 -94.0894 257° West 430 495 34,000  Level Minneapolis Center
Tue 07:10:50 PM 40.9475 -94.2419 257° West 430 495 34,000  Level Minneapolis Center
Tue 07:11:52 PM 40.9203 -94.3944 257° West 430 495 34,000  Level Minneapolis Center
Tue 07:12:54 PM 40.8917 -94.5472 256° West 432 497 34,000  Level Minneapolis Center
Tue 07:13:56 PM 40.8592 -94.7269 257° West 429 494 34,000  Level Minneapolis Center
Tue 07:14:58 PM 40.8314 -94.8783 256° West 428 493 34,000  Level Minneapolis Center
Tue 07:16:01 PM 40.8047 -95.0303 257° West 425 489 34,000  Level Minneapolis Center
Tue 07:17:03 PM 40.7756 -95.1861 256° West 430 495 34,000  Level Minneapolis Center
Tue 07:18:05 PM 40.7456 -95.3408 256° West 434 499 34,000  Level Minneapolis Center
Tue 07:19:07 PM 40.7164 -95.4950 256° West 433 498 34,000  Level Minneapolis Center
Tue 07:20:08 PM 40.6944 -95.6181 257° West 432 497 34,000  Level Minneapolis Center
Tue 07:21:11 PM 40.6539 -95.8303 256° West 427 491 34,000  Level Minneapolis Center
Tue 07:22:13 PM 40.6250 -95.9814 256° West 425 489 34,000 532 Level Minneapolis Center
Tue 07:23:15 PM 40.5956 -96.1367 256° West 431 496 35,100 968 Climbing Minneapolis Center
Tue 07:24:17 PM 40.5833 -96.2886 264° West 421 484 36,000 435 Climbing Minneapolis Center
Tue 07:25:19 PM 40.5736 -96.4133 264° West 423 487 36,000  Level Minneapolis Center
Tue 07:26:21 PM 40.5581 -96.5972 264° West 422 486 36,000  Level Minneapolis Center
Tue 07:27:23 PM 40.5469 -96.7481 265° West 416 479 36,000  Level Minneapolis Center
Tue 07:28:25 PM 40.5356 -96.9267 265° West 411 473 36,000  Level Minneapolis Center
Tue 07:29:28 PM 40.5256 -97.0764 265° West 411 473 36,000  Level Minneapolis Center
Tue 07:30:29 PM 40.5175 -97.1972 265° West 413 475 36,000  Level Minneapolis Center
Tue 07:31:32 PM 40.4969 -97.3758 261° West 407 468 36,000  Level Minneapolis Center
Tue 07:32:34 PM 40.4661 -97.5181 254° West 404 465 36,000  Level Minneapolis Center
Tue 07:33:36 PM 40.4344 -97.6636 254° West 410 472 36,000  Level Minneapolis Center
Tue 07:34:38 PM 40.4033 -97.8072 254° West 409 471 36,000  Level Minneapolis Center
Tue 07:35:40 PM 40.3644 -97.9814 254° West 412 474 36,000  Level Minneapolis Center
Tue 07:36:54 PM 40.3328 -98.1269 254° West 413 475 36,000  Level Minneapolis Center
Tue 07:37:57 PM 40.2933 -98.3014 254° West 414 476 36,000  Level Minneapolis Center
Tue 07:38:59 PM 40.2622 -98.4444 254° West 410 472 36,000  Level Minneapolis Center
Tue 07:40:01 PM 40.2292 -98.5878 253° West 410 472 36,000  Level Minneapolis Center
Tue 07:41:03 PM 40.1969 -98.7308 254° West 409 471 36,000  Level Minneapolis Center
Tue 07:42:05 PM 40.1631 -98.8750 253° West 411 473 36,000  Level Minneapolis Center
Tue 07:43:06 PM 40.1294 -99.0225 253° West 418 481 36,000  Level Minneapolis Center
Tue 07:44:07 PM 40.0886 -99.1989 253° West 422 486 36,000  Level Denver Center
Tue 07:45:21 PM 40.0536 -99.3475 253° West 427 491 36,000  Level Denver Center
Tue 07:46:24 PM 40.0108 -99.5256 253° West 427 491 36,000  Level Denver Center
Tue 07:47:25 PM 39.9831 -99.6442 253° West 427 491 36,000  Level Denver Center
Tue 07:48:28 PM 39.9411 -99.8225 253° West 429 494 36,000  Level Denver Center
Tue 07:49:30 PM 39.9053 -99.9700 252° West 428 493 36,000  Level Denver Center
Tue 07:50:32 PM 39.8617 -100.1469 252° West 427 491 36,000  Level Denver Center
Tue 07:51:34 PM 39.8300 -100.2800 253° West 428 493 36,000  Level Denver Center
Tue 07:52:36 PM 39.7897 -100.4433 252° West 425 489 36,000  Level Denver Center
Tue 07:53:38 PM 39.7544 -100.5828 252° West 424 488 36,000  Level Denver Center
Tue 07:54:40 PM 39.7139 -100.7453 252° West 423 487 36,000  Level Denver Center
Tue 07:55:42 PM 39.6797 -100.8819 252° West 417 480 36,000  Level Denver Center
Tue 07:56:56 PM 39.6039 -101.0211 235° Southwest 431 496 36,000  Level Denver Center
Tue 07:57:59 PM 39.5178 -101.1503 229° Southwest 425 489 36,000  Level Denver Center
Tue 07:59:01 PM 39.4317 -101.2811 230° Southwest 427 491 36,000  Level Denver Center
Tue 08:00:06 PM 39.3219 -101.3847 216° Southwest 435 501 36,000  Level Denver Center
Tue 08:01:08 PM 39.2294 -101.4753 217° Southwest 435 501 36,000  Level Denver Center
Tue 08:02:10 PM 39.1219 -101.5758 216° Southwest 426 490 36,000  Level Denver Center
Tue 08:03:12 PM 39.0247 -101.6725 218° Southwest 425 489 36,000  Level Denver Center
Tue 08:04:14 PM 38.9347 -101.7586 217° Southwest 423 487 36,000  Level Denver Center
Tue 08:05:16 PM 38.8464 -101.8464 218° Southwest 420 483 36,000  Level Denver Center
Tue 08:06:18 PM 38.7458 -101.9494 219° Southwest 416 479 36,000  Level Denver Center
Tue 08:07:20 PM 38.6686 -102.0489 225° Southwest 413 475 36,000  Level Denver Center
Tue 08:08:22 PM 38.5908 -102.1778 232° Southwest 412 474 36,000  Level Denver Center
Tue 08:09:24 PM 38.5233 -102.2869 232° Southwest 411 473 36,000  Level Denver Center
Tue 08:10:26 PM 38.4433 -102.4147 231° Southwest 412 474 36,000  Level Denver Center
Tue 08:11:28 PM 38.3647 -102.5158 225° Southwest 424 488 36,000  Level Denver Center
Tue 08:12:30 PM 38.2708 -102.6014 216° Southwest 435 501 36,000  Level Denver Center
Tue 08:13:44 PM 38.1547 -102.6919 212° Southwest 441 507 36,000  Level Denver Center
Tue 08:14:47 PM 38.0244 -102.7975 213° Southwest 438 504 36,000  Level Denver Center
Tue 08:15:49 PM 37.9128 -102.8900 213° Southwest 434 499 36,000  Level Denver Center
Tue 08:16:51 PM 37.8222 -102.9803 218° Southwest 432 497 36,000  Level Denver Center
Tue 08:17:53 PM 37.7139 -103.0856 218° Southwest 436 502 36,000  Level Denver Center
Tue 08:18:55 PM 37.6192 -103.1708 216° Southwest 436 502 36,000  Level Denver Center
Tue 08:19:57 PM 37.5189 -103.2508 212° Southwest 443 510 36,000  Level Denver Center
Tue 08:20:59 PM 37.4019 -103.3411 212° Southwest 440 506 36,000  Level Denver Center
Tue 08:22:01 PM 37.3086 -103.4292 217° Southwest 436 502 36,000  Level Denver Center
Tue 08:23:03 PM 37.2044 -103.5369 220° Southwest 433 498 36,000  Level Denver Center
Tue 08:24:05 PM 37.1683 -103.6636 250° West 406 467 36,000  Level Denver Center
Tue 08:25:07 PM 37.1689 -103.7736 270° West 396 456 36,000  Level Denver Center
Tue 08:26:09 PM 37.1800 -103.9481 275° West 393 452 36,000  Level Denver Center
Tue 08:27:11 PM 37.1961 -104.1000 278° West 392 451 36,000  Level Denver Center
Tue 08:28:13 PM 37.2103 -104.2303 278° West 391 450 36,000  Level Denver Center
Tue 08:29:15 PM 37.2222 -104.3617 277° West 394 453 36,000  Level Denver Center
Tue 08:30:17 PM 37.2086 -104.4928 263° West 398 458 36,000  Level Denver Center
Tue 08:31:19 PM 37.1875 -104.6508 261° West 409 471 36,000  Level Denver Center
Tue 08:32:21 PM 37.1664 -104.8086 261° West 409 471 36,000  Level Denver Center
Tue 08:33:23 PM 37.1483 -104.9433 260° West 409 471 36,000  Level Denver Center
Tue 08:34:25 PM 37.1275 -105.0989 261° West 407 468 36,000  Level Denver Center
Tue 08:35:27 PM 37.1081 -105.2347 260° West 411 473 36,000  Level Denver Center
Tue 08:36:29 PM 37.0856 -105.3928 260° West 412 474 36,000  Level Denver Center
Tue 08:37:31 PM 37.0661 -105.5281 260° West 412 474 36,000  Level Denver Center
Tue 08:38:33 PM 37.0464 -105.6586 259° West 400 460 36,000  Level Denver Center
Tue 08:39:35 PM 37.0258 -105.8103 260° West 396 456 36,000  Level Denver Center
Tue 08:40:37 PM 37.0078 -105.9406 260° West 397 457 36,000  Level Denver Center
Tue 08:41:39 PM 36.9875 -106.0706 259° West 398 458 36,000  Level Denver Center
Tue 08:42:41 PM 36.9631 -106.2322 259° West 398 458 36,000  Level Denver Center
Tue 08:43:43 PM 36.9436 -106.3631 260° West 399 459 36,000  Level Denver Center
Tue 08:44:45 PM 36.9208 -106.5156 259° West 402 463 36,000  Level Denver Center
Tue 08:45:47 PM 36.9006 -106.6439 259° West 396 456 36,000  Level Denver Center
Tue 08:46:49 PM 36.8789 -106.7936 260° West 391 450 36,000  Level Denver Center
Tue 08:47:51 PM 36.8578 -106.9194 258° West 388 447 36,000  Level Denver Center
Tue 08:48:53 PM 36.8347 -107.0675 259° West 389 448 36,000  Level Denver Center
Tue 08:49:55 PM 36.8144 -107.1931 259° West 386 444 36,000  Level Denver Center
Tue 08:50:57 PM 36.7950 -107.3183 259° West 385 443 36,000  Level Denver Center
Tue 08:51:58 PM 36.7717 -107.4658 259° West 387 445 36,000  Level Denver Center
Tue 08:53:00 PM 36.7508 -107.5908 258° West 388 447 36,000  Level Denver Center
Tue 08:54:02 PM 36.7269 -107.7394 259° West 390 449 36,000  Level Denver Center
Tue 08:55:04 PM 36.7067 -107.8675 259° West 394 453 36,000  Level Denver Center
Tue 08:56:06 PM 36.6828 -108.0147 259° West 391 450 36,000  Level Denver Center
Tue 08:57:08 PM 36.6611 -108.1425 258° West 393 452 36,000  Level Denver Center
Tue 08:58:10 PM 36.6361 -108.2900 258° West 392 451 36,000  Level Denver Center
Tue 08:59:12 PM 36.6156 -108.4156 259° West 388 447 36,000  Level Denver Center
Tue 09:00:13 PM 36.5903 -108.5619 258° West 389 448 36,000  Level Denver Center
Tue 09:01:15 PM 36.5683 -108.6878 258° West 389 448 36,000  Level Denver Center
Tue 09:02:17 PM 36.5433 -108.8328 258° West 386 444 36,000  Level Denver Center
Tue 09:03:19 PM 36.5217 -108.9567 258° West 386 444 36,000  Level Denver Center
Tue 09:04:21 PM 36.4961 -109.1025 258° West 389 448 36,000  Level Denver Center
Tue 09:05:23 PM 36.4744 -109.2281 258° West 391 450 36,000  Level Denver Center
Tue 09:06:25 PM 36.4481 -109.3756 258° West 394 453 36,000  Level Denver Center
Tue 09:07:26 PM 36.4289 -109.4808 257° West 394 453 36,000  Level Denver Center
Tue 09:08:29 PM 36.3989 -109.6486 258° West 392 451 36,000  Level Denver Center
Tue 09:09:31 PM 36.3758 -109.7742 257° West 391 450 36,000  Level Denver Center
Tue 09:10:32 PM 36.3533 -109.8983 257° West 389 448 36,000  Level Denver Center
Tue 09:11:34 PM 36.3264 -110.0428 257° West 387 445 36,000  Level Denver Center
Tue 09:12:36 PM 36.3017 -110.1764 257° West 387 445 36,000  Level Denver Center
Tue 09:13:38 PM 36.2775 -110.3078 257° West 391 450 36,000  Level Denver Center
Tue 09:14:40 PM 36.2525 -110.4381 257° West 390 449 36,000  Level Denver Center
Tue 09:15:41 PM 36.2289 -110.5678 257° West 388 447 36,000  Level Denver Center
Tue 09:16:43 PM 36.2042 -110.6969 257° West 386 444 36,000  Level Denver Center
Tue 09:17:45 PM 36.1753 -110.8522 257° West 386 444 36,000  Level Denver Center
Tue 09:18:47 PM 36.1494 -110.9800 256° West 383 441 36,000  Level Denver Center
Tue 09:19:49 PM 36.1253 -111.1086 257° West 384 442 36,000  Level Denver Center
Tue 09:20:50 PM 36.1003 -111.2358 256° West 382 440 36,000  Level Denver Center
Tue 09:21:52 PM 36.0753 -111.3625 256° West 380 437 36,000  Level Denver Center
Tue 09:22:54 PM 36.0428 -111.4881 252° West 381 438 36,000  Level Denver Center
Tue 09:23:56 PM 36.0033 -111.6092 248° West 381 438 36,000  Level Denver Center
Tue 09:24:58 PM 35.9586 -111.7561 249° West 381 438 36,000  Level Denver Center
Tue 09:26:09 PM 35.9150 -111.8886 248° West 382 440 36,000  Level Los Angeles Center
Tue 09:27:11 PM 35.8764 -112.0108 249° West 384 442 36,000  Level Los Angeles Center
Tue 09:28:13 PM 35.8375 -112.1344 249° West 387 445 36,000  Level Los Angeles Center
Tue 09:29:15 PM 35.7908 -112.2789 248° West 382 440 36,000  Level Los Angeles Center
Tue 09:30:17 PM 35.7525 -112.3989 249° West 379 436 36,000  Level Los Angeles Center
Tue 09:31:18 PM 35.7136 -112.5192 248° West 382 440 36,000  Level Los Angeles Center
Tue 09:32:20 PM 35.6758 -112.6339 248° West 377 434 36,000  Level Los Angeles Center
Tue 09:33:22 PM 35.6367 -112.7547 248° West 379 436 36,000  Level Los Angeles Center
Tue 09:34:24 PM 35.5900 -112.8969 248° West 375 432 36,000  Level Los Angeles Center
Tue 09:35:25 PM 35.5553 -113.0047 248° West 379 436 36,000  Level Los Angeles Center
Tue 09:36:27 PM 35.5136 -113.1278 247° West 384 442 36,000  Level Los Angeles Center
Tue 09:37:29 PM 35.4669 -113.2711 248° West 377 434 36,000  Level Los Angeles Center
Tue 09:38:42 PM 35.4339 -113.3697 248° West 376 433 36,000  Level Los Angeles Center
Tue 09:39:44 PM 35.3783 -113.5347 248° West 376 433 36,000  Level Los Angeles Center
Tue 09:40:46 PM 35.3394 -113.6528 248° West 378 435 36,000  Level Los Angeles Center
Tue 09:41:48 PM 35.2992 -113.7708 247° West 378 435 36,000  Level Los Angeles Center
Tue 09:42:49 PM 35.2603 -113.8886 248° West 377 434 36,000  Level Los Angeles Center
Tue 09:43:51 PM 35.2192 -114.0053 247° West 371 427 36,000  Level Los Angeles Center
Tue 09:44:53 PM 35.1867 -114.1011 247° West 376 433 36,000  Level Los Angeles Center
Tue 09:46:07 PM 35.1303 -114.2669 247° West 378 435 36,000  Level Los Angeles Center
Tue 09:47:09 PM 35.0814 -114.4086 247° West 380 437 36,000  Level Los Angeles Center
Tue 09:48:10 PM 35.0408 -114.5264 247° West 377 434 36,000  Level Los Angeles Center
Tue 09:49:12 PM 34.9989 -114.6456 247° West 382 440 36,000  Level Los Angeles Center
Tue 09:50:14 PM 34.9578 -114.7631 247° West 377 434 36,000  Level Los Angeles Center
Tue 09:51:15 PM 34.9175 -114.8797 247° West 374 430 36,000  Level Los Angeles Center
Tue 09:52:17 PM 34.8764 -114.9961 247° West 374 430 36,000  Level Los Angeles Center
Tue 09:53:19 PM 34.8358 -115.1142 247° West 376 433 36,000  Level Los Angeles Center
Tue 09:54:20 PM 34.7856 -115.2539 246° West 376 433 36,000  Level Los Angeles Center
Tue 09:55:22 PM 34.7442 -115.3706 247° West 375 432 36,000 -49 Level Los Angeles Center
Tue 09:56:23 PM 34.7022 -115.4861 246° West 374 430 35,900 -488 Descending Los Angeles Center
Tue 09:57:25 PM 34.6636 -115.5958 247° West 377 434 35,000 -927 Descending Los Angeles Center
Tue 09:58:26 PM 34.6211 -115.7139 246° West 382 440 34,000 -927 Descending Los Angeles Center
Tue 09:59:28 PM 34.5783 -115.8344 247° West 387 445 33,100 -919 Descending Los Angeles Center
Tue 10:00:30 PM 34.5336 -115.9583 246° West 397 457 32,100 -1,024 Descending Los Angeles Center
Tue 10:01:31 PM 34.4797 -116.1081 246° West 403 464 31,000 -976 Descending Los Angeles Center
Tue 10:02:33 PM 34.4322 -116.2344 246° West 410 472 30,100 -976 Descending Los Angeles Center
Tue 10:03:34 PM 34.3858 -116.3625 246° West 415 478 29,000 -1,024 Descending Los Angeles Center
Tue 10:04:36 PM 34.3389 -116.4892 246° West 413 475 28,000 -1,024 Descending Los Angeles Center
Tue 10:05:37 PM 34.2933 -116.6100 245° Southwest 398 458 26,900 -1,073 Descending Los Angeles Center
Tue 10:06:39 PM 34.2511 -116.7247 246° West 376 433 25,800 -1,403 Descending Los Angeles Center
Tue 10:07:41 PM 34.2100 -116.8339 246° West 359 413 24,000 -1,854 Descending Los Angeles Center
Tue 10:08:42 PM 34.1717 -116.9369 246° West 341 392 22,000 -1,911 Descending Los Angeles Center
Tue 10:09:56 PM 34.1253 -117.0606 246° West 337 388 19,700 -1,765 Descending Los Angeles Center
Tue 10:10:58 PM 34.0842 -117.1633 244° Southwest 320 368 18,000 -1,659 Descending Los Angeles Center
Tue 10:11:59 PM 34.0200 -117.2375 224° Southwest 306 352 16,300 -1,627 Descending Los Angeles Center
Tue 10:12:56 PM 33.9833 -117.3333 245° Southwest 296 341 14,800 -1,436 Descending Southern California TRACON
Tue 10:13:56 PM 34.0000 -117.4167 284° West 283 326 13,500 -1,150 Descending Southern California TRACON
Tue 10:14:56 PM 34.0000 -117.5167 270° West 274 315 12,500 -1,150 Descending Southern California TRACON
Tue 10:15:56 PM 34.0000 -117.6000 270° West 327 376 11,200 -1,250 Descending Southern California TRACON
Tue 10:16:56 PM 34.0000 -117.7000 270° West 271 312 10,000 -600 Descending Southern California TRACON
Tue 10:17:56 PM 34.0000 -117.7833 270° West 267 307 10,000 -650 Level Southern California TRACON
Tue 10:18:56 PM 33.9833 -117.8833 259° West 266 306 8,700 -1,150 Descending Southern California TRACON
Tue 10:19:56 PM 33.9833 -117.9500 270° West 244 281 7,700 -1,041 Descending Southern California TRACON
Tue 10:20:57 PM 33.9667 -118.0333 256° West 219 252 6,600 -1,339 Descending Southern California TRACON
Tue 10:21:57 PM 33.9667 -118.1000 270° West 215 247 5,000 -1,550 Descending Southern California TRACON
Tue 10:22:57 PM 33.9500 -118.1833 256° West 222 255 3,500 -1,150 Descending Southern California TRACON
Tue 10:23:57 PM 33.9500 -118.2500 270° West 197 227 2,700 -900 Descending Southern California TRACON
Tue 10:24:57 PM 33.9500 -118.3000 270° West 179 206 1,700 -1,050 Descending Southern California TRACON
Tue 10:25:57 PM 33.9333 -118.3500 248° West 143 165 600 -616 Descending Southern California TRACON
Tue 10:27:23 PM 33.9358 -118.4133 273° West 156 180 200 -279 Descending Los Angeles Center

Login

Don't have an account? Register now (free) for customized features, flight alerts, and more!